sensor_id;sensor_type;location;lat;lon;timestamp;temperature;humidity
74534;SHT31;63012;51.096;-115.366;2023-05-08T17:37:26;18.73;46.04
74534;SHT31;63012;51.096;-115.366;2023-05-08T17:39:53;18.81;45.77
74534;SHT31;63012;51.096;-115.366;2023-05-08T17:42:20;18.89;45.61
74534;SHT31;63012;51.096;-115.366;2023-05-08T17:44:47;18.95;45.47
74534;SHT31;63012;51.096;-115.366;2023-05-08T17:47:13;19.00;45.39
74534;SHT31;63012;51.096;-115.366;2023-05-08T17:49:41;19.05;45.40
74534;SHT31;63012;51.096;-115.366;2023-05-08T17:54:39;19.10;43.99
74534;SHT31;63012;51.096;-115.366;2023-05-08T17:57:05;19.14;43.41
74534;SHT31;63012;51.096;-115.366;2023-05-08T17:59:32;19.15;43.21
74534;SHT31;63012;51.096;-115.366;2023-05-08T18:02:00;19.17;42.98
74534;SHT31;63012;51.096;-115.366;2023-05-08T18:04:27;19.18;43.10
74534;SHT31;63012;51.096;-115.366;2023-05-08T18:06:54;19.21;43.44
74534;SHT31;63012;51.096;-115.366;2023-05-08T18:09:21;19.24;42.92
74534;SHT31;63012;51.096;-115.366;2023-05-08T18:11:48;19.22;42.22
74534;SHT31;63012;51.096;-115.366;2023-05-08T18:14:15;19.20;42.41
74534;SHT31;63012;51.096;-115.366;2023-05-08T18:16:42;19.18;42.40
74534;SHT31;63012;51.096;-115.366;2023-05-08T18:19:09;19.16;42.60
74534;SHT31;63012;51.096;-115.366;2023-05-08T18:21:36;19.16;42.81
74534;SHT31;63012;51.096;-115.366;2023-05-08T18:24:03;19.15;42.54
74534;SHT31;63012;51.096;-115.366;2023-05-08T18:26:31;19.14;42.24
74534;SHT31;63012;51.096;-115.366;2023-05-08T18:28:57;19.11;41.90
74534;SHT31;63012;51.096;-115.366;2023-05-08T18:31:24;19.09;41.77
74534;SHT31;63012;51.096;-115.366;2023-05-08T18:33:51;19.08;41.97
74534;SHT31;63012;51.096;-115.366;2023-05-08T18:36:18;19.10;42.22
74534;SHT31;63012;51.096;-115.366;2023-05-08T18:38:45;19.12;42.45
74534;SHT31;63012;51.096;-115.366;2023-05-08T18:41:12;19.12;42.48
74534;SHT31;63012;51.096;-115.366;2023-05-08T18:43:39;19.11;42.64
74534;SHT31;63012;51.096;-115.366;2023-05-08T18:46:07;19.09;42.59
74534;SHT31;63012;51.096;-115.366;2023-05-08T18:48:41;19.04;42.60
74534;SHT31;63012;51.096;-115.366;2023-05-08T18:51:08;19.00;42.79
74534;SHT31;63012;51.096;-115.366;2023-05-08T18:53:35;18.95;42.70
74534;SHT31;63012;51.096;-115.366;2023-05-08T18:56:03;18.90;42.60
74534;SHT31;63012;51.096;-115.366;2023-05-08T18:58:30;18.86;42.93
74534;SHT31;63012;51.096;-115.366;2023-05-08T19:00:58;18.88;43.24
74534;SHT31;63012;51.096;-115.366;2023-05-08T19:03:25;18.90;43.39
74534;SHT31;63012;51.096;-115.366;2023-05-08T19:05:53;18.95;43.48
74534;SHT31;63012;51.096;-115.366;2023-05-08T19:08:20;18.97;43.47
74534;SHT31;63012;51.096;-115.366;2023-05-08T19:10:47;18.99;43.45
74534;SHT31;63012;51.096;-115.366;2023-05-08T19:13:14;19.02;43.41
74534;SHT31;63012;51.096;-115.366;2023-05-08T19:15:41;19.03;43.38
74534;SHT31;63012;51.096;-115.366;2023-05-08T19:18:08;19.04;43.32
74534;SHT31;63012;51.096;-115.366;2023-05-08T19:20:35;19.06;43.30
74534;SHT31;63012;51.096;-115.366;2023-05-08T19:23:02;19.08;43.23
74534;SHT31;63012;51.096;-115.366;2023-05-08T19:25:29;19.09;43.21
74534;SHT31;63012;51.096;-115.366;2023-05-08T19:27:56;19.10;43.19
74534;SHT31;63012;51.096;-115.366;2023-05-08T19:30:23;19.11;43.18
74534;SHT31;63012;51.096;-115.366;2023-05-08T19:32:50;19.12;43.17
74534;SHT31;63012;51.096;-115.366;2023-05-08T19:35:16;19.15;43.11
74534;SHT31;63012;51.096;-115.366;2023-05-08T19:37:43;19.15;43.13
74534;SHT31;63012;51.096;-115.366;2023-05-08T19:40:11;19.15;43.11
74534;SHT31;63012;51.096;-115.366;2023-05-08T19:42:40;19.16;43.13
74534;SHT31;63012;51.096;-115.366;2023-05-08T19:45:10;19.17;43.12
74534;SHT31;63012;51.096;-115.366;2023-05-08T19:47:38;19.19;43.20
74534;SHT31;63012;51.096;-115.366;2023-05-08T19:50:05;19.20;43.30
74534;SHT31;63012;51.096;-115.366;2023-05-08T19:52:36;19.22;43.29
74534;SHT31;63012;51.096;-115.366;2023-05-08T19:55:03;19.22;43.30
74534;SHT31;63012;51.096;-115.366;2023-05-08T19:57:30;19.24;43.29
74534;SHT31;63012;51.096;-115.366;2023-05-08T19:59:57;19.24;43.25
74534;SHT31;63012;51.096;-115.366;2023-05-08T20:02:24;19.25;43.21
74534;SHT31;63012;51.096;-115.366;2023-05-08T20:04:51;19.25;43.20
74534;SHT31;63012;51.096;-115.366;2023-05-08T20:07:18;19.26;43.20
74534;SHT31;63012;51.096;-115.366;2023-05-08T20:09:45;19.27;43.20
74534;SHT31;63012;51.096;-115.366;2023-05-08T20:12:13;19.27;43.17
74534;SHT31;63012;51.096;-115.366;2023-05-08T20:14:40;19.28;43.16
74534;SHT31;63012;51.096;-115.366;2023-05-08T20:17:07;19.29;43.16
74534;SHT31;63012;51.096;-115.366;2023-05-08T20:19:34;19.29;43.15
74534;SHT31;63012;51.096;-115.366;2023-05-08T20:22:01;19.29;43.13
74534;SHT31;63012;51.096;-115.366;2023-05-08T20:24:28;19.30;43.10
74534;SHT31;63012;51.096;-115.366;2023-05-08T20:26:55;19.30;43.13
74534;SHT31;63012;51.096;-115.366;2023-05-08T20:29:22;19.31;43.10
74534;SHT31;63012;51.096;-115.366;2023-05-08T20:31:50;19.32;43.10
74534;SHT31;63012;51.096;-115.366;2023-05-08T20:34:18;19.33;43.08
74534;SHT31;63012;51.096;-115.366;2023-05-08T20:36:45;19.34;43.08
74534;SHT31;63012;51.096;-115.366;2023-05-08T20:39:12;19.35;43.03
74534;SHT31;63012;51.096;-115.366;2023-05-08T20:41:40;19.35;43.02
74534;SHT31;63012;51.096;-115.366;2023-05-08T20:44:06;19.36;43.02
74534;SHT31;63012;51.096;-115.366;2023-05-08T20:46:34;19.36;43.00
74534;SHT31;63012;51.096;-115.366;2023-05-08T20:49:01;19.37;43.00
74534;SHT31;63012;51.096;-115.366;2023-05-08T20:51:30;19.38;43.00
74534;SHT31;63012;51.096;-115.366;2023-05-08T20:53:57;19.38;43.00
74534;SHT31;63012;51.096;-115.366;2023-05-08T20:56:24;19.39;43.00
74534;SHT31;63012;51.096;-115.366;2023-05-08T20:58:51;19.39;43.00
74534;SHT31;63012;51.096;-115.366;2023-05-08T21:01:18;19.41;42.97
74534;SHT31;63012;51.096;-115.366;2023-05-08T21:03:45;19.40;42.95
74534;SHT31;63012;51.096;-115.366;2023-05-08T21:06:12;19.41;42.94
74534;SHT31;63012;51.096;-115.366;2023-05-08T21:08:39;19.43;42.91
74534;SHT31;63012;51.096;-115.366;2023-05-08T21:11:06;19.43;42.91
74534;SHT31;63012;51.096;-115.366;2023-05-08T21:13:33;19.44;42.91
74534;SHT31;63012;51.096;-115.366;2023-05-08T21:16:01;19.46;42.94
74534;SHT31;63012;51.096;-115.366;2023-05-08T21:18:30;19.48;42.90
74534;SHT31;63012;51.096;-115.366;2023-05-08T21:20:57;19.49;42.90
74534;SHT31;63012;51.096;-115.366;2023-05-08T21:23:24;19.50;42.87
74534;SHT31;63012;51.096;-115.366;2023-05-08T21:25:51;19.52;42.81
74534;SHT31;63012;51.096;-115.366;2023-05-08T21:28:18;19.53;42.80
74534;SHT31;63012;51.096;-115.366;2023-05-08T21:30:45;19.53;42.75
74534;SHT31;63012;51.096;-115.366;2023-05-08T21:33:13;19.53;42.71
74534;SHT31;63012;51.096;-115.366;2023-05-08T21:35:40;19.55;42.69
74534;SHT31;63012;51.096;-115.366;2023-05-08T21:38:11;19.56;42.66
74534;SHT31;63012;51.096;-115.366;2023-05-08T21:40:38;19.56;42.61
74534;SHT31;63012;51.096;-115.366;2023-05-08T21:43:05;19.56;42.59
74534;SHT31;63012;51.096;-115.366;2023-05-08T21:45:32;19.58;42.60
74534;SHT31;63012;51.096;-115.366;2023-05-08T21:47:59;19.58;42.60
74534;SHT31;63012;51.096;-115.366;2023-05-08T21:50:27;19.58;42.58
74534;SHT31;63012;51.096;-115.366;2023-05-08T21:52:54;19.59;42.54
74534;SHT31;63012;51.096;-115.366;2023-05-08T21:55:21;19.60;42.51
74534;SHT31;63012;51.096;-115.366;2023-05-08T21:57:49;19.61;42.50
74534;SHT31;63012;51.096;-115.366;2023-05-08T22:00:16;19.61;42.49
74534;SHT31;63012;51.096;-115.366;2023-05-08T22:02:44;19.62;42.45
74534;SHT31;63012;51.096;-115.366;2023-05-08T22:05:11;19.62;42.46
74534;SHT31;63012;51.096;-115.366;2023-05-08T22:07:38;19.62;42.42
74534;SHT31;63012;51.096;-115.366;2023-05-08T22:10:06;19.64;42.41
74534;SHT31;63012;51.096;-115.366;2023-05-08T22:12:34;19.64;42.40
74534;SHT31;63012;51.096;-115.366;2023-05-08T22:15:02;19.64;42.40
74534;SHT31;63012;51.096;-115.366;2023-05-08T22:17:29;19.65;42.34
74534;SHT31;63012;51.096;-115.366;2023-05-08T22:19:56;19.65;42.22
74534;SHT31;63012;51.096;-115.366;2023-05-08T22:22:23;19.66;42.21
74534;SHT31;63012;51.096;-115.366;2023-05-08T22:24:50;19.66;42.14
74534;SHT31;63012;51.096;-115.366;2023-05-08T22:27:17;19.67;42.02
74534;SHT31;63012;51.096;-115.366;2023-05-08T22:29:44;19.67;41.98
74534;SHT31;63012;51.096;-115.366;2023-05-08T22:32:11;19.67;41.97
74534;SHT31;63012;51.096;-115.366;2023-05-08T22:34:39;19.68;41.86
74534;SHT31;63012;51.096;-115.366;2023-05-08T22:37:06;19.68;41.75
74534;SHT31;63012;51.096;-115.366;2023-05-08T22:39:33;19.69;41.58
74534;SHT31;63012;51.096;-115.366;2023-05-08T22:41:59;19.68;41.41
74534;SHT31;63012;51.096;-115.366;2023-05-08T22:44:27;19.71;41.42
74534;SHT31;63012;51.096;-115.366;2023-05-08T22:46:54;19.71;41.46
74534;SHT31;63012;51.096;-115.366;2023-05-08T22:49:22;19.71;41.49
74534;SHT31;63012;51.096;-115.366;2023-05-08T22:51:49;19.72;41.80
74534;SHT31;63012;51.096;-115.366;2023-05-08T22:54:16;19.73;41.99
74534;SHT31;63012;51.096;-115.366;2023-05-08T22:56:43;19.75;42.08
74534;SHT31;63012;51.096;-115.366;2023-05-08T22:59:10;19.76;42.08
74534;SHT31;63012;51.096;-115.366;2023-05-08T23:01:37;19.77;42.04
74534;SHT31;63012;51.096;-115.366;2023-05-08T23:04:04;19.77;42.00
74534;SHT31;63012;51.096;-115.366;2023-05-08T23:06:31;19.78;42.00
74534;SHT31;63012;51.096;-115.366;2023-05-08T23:08:58;19.79;41.98
74534;SHT31;63012;51.096;-115.366;2023-05-08T23:11:25;19.79;41.97
74534;SHT31;63012;51.096;-115.366;2023-05-08T23:13:52;19.80;41.91
74534;SHT31;63012;51.096;-115.366;2023-05-08T23:16:19;19.80;41.90
74534;SHT31;63012;51.096;-115.366;2023-05-08T23:18:46;19.80;41.90
74534;SHT31;63012;51.096;-115.366;2023-05-08T23:21:13;19.80;41.87
74534;SHT31;63012;51.096;-115.366;2023-05-08T23:23:40;19.81;41.81
74534;SHT31;63012;51.096;-115.366;2023-05-08T23:26:07;19.80;41.78
74534;SHT31;63012;51.096;-115.366;2023-05-08T23:28:34;19.81;41.70
74534;SHT31;63012;51.096;-115.366;2023-05-08T23:31:02;19.82;41.60
74534;SHT31;63012;51.096;-115.366;2023-05-08T23:33:29;19.83;41.55
74534;SHT31;63012;51.096;-115.366;2023-05-08T23:35:56;19.83;41.44
74534;SHT31;63012;51.096;-115.366;2023-05-08T23:38:24;19.84;41.35
74534;SHT31;63012;51.096;-115.366;2023-05-08T23:40:51;19.84;41.18
74534;SHT31;63012;51.096;-115.366;2023-05-08T23:43:18;19.84;41.08
74534;SHT31;63012;51.096;-115.366;2023-05-08T23:45:45;19.85;40.98
74534;SHT31;63012;51.096;-115.366;2023-05-08T23:48:13;19.86;41.02
74534;SHT31;63012;51.096;-115.366;2023-05-08T23:50:40;19.86;40.98
74534;SHT31;63012;51.096;-115.366;2023-05-08T23:53:07;19.86;41.04
74534;SHT31;63012;51.096;-115.366;2023-05-08T23:55:34;19.87;41.05
74534;SHT31;63012;51.096;-115.366;2023-05-08T23:58:02;19.87;41.01
